Bigcreek, South Carolina
Current Conditions -  °F | °C
As of 3:15 PM on Monday 24 Nov 2014 (Local Time) from KEOE Reporting Station
Thunderstorm Thunderstorm  
Wind Chill: 72°   Ceiling: Unl
Heat Index: 72°   Visibility: 10mi
Dew Point: 55°   Wind: 10mph
Humidity: 57%   Direction: 230°SW
Pressure: 29.81"   Gusts: NA
Location:  34.2477°N, 81.8399°W
Report Text: KEOE 242015Z AUTO 23009KT 10SM VCTS CLR 22/13 A2981 RMK AO2 LTG DSNT E AND SE
Loading
Personal Weather Stations






























Interactive Weather Map New forecast layout! Learn more

10-Day Weather Forecast

Advertisements
Track Severe Weather on mobile